sensor_id;sensor_type;location;lat;lon;timestamp;pressure;altitude;pressure_sealevel;temperature;humidity
63204;BME280;49297;43.210;27.914;2023-04-23T00:01:04;101280.25;;;9.62;71.81
63204;BME280;49297;43.210;27.914;2023-04-23T00:03:31;101276.78;;;9.62;72.10
63204;BME280;49297;43.210;27.914;2023-04-23T00:06:04;101283.06;;;9.61;72.47
63204;BME280;49297;43.210;27.914;2023-04-23T00:08:40;101281.00;;;9.64;72.74
63204;BME280;49297;43.210;27.914;2023-04-23T00:11:07;101276.91;;;9.60;71.97
63204;BME280;49297;43.210;27.914;2023-04-23T00:13:35;101278.94;;;9.57;72.08
63204;BME280;49297;43.210;27.914;2023-04-23T00:16:02;101281.19;;;9.50;72.37
63204;BME280;49297;43.210;27.914;2023-04-23T00:18:28;101283.47;;;9.43;72.25
63204;BME280;49297;43.210;27.914;2023-04-23T00:20:55;101275.88;;;9.39;72.80
63204;BME280;49297;43.210;27.914;2023-04-23T00:23:22;101276.13;;;9.36;72.64
63204;BME280;49297;43.210;27.914;2023-04-23T00:25:49;101275.50;;;9.32;72.62
63204;BME280;49297;43.210;27.914;2023-04-23T00:28:15;101276.47;;;9.31;73.24
63204;BME280;49297;43.210;27.914;2023-04-23T00:30:42;101273.47;;;9.36;72.78
63204;BME280;49297;43.210;27.914;2023-04-23T00:33:09;101275.06;;;9.38;71.81
63204;BME280;49297;43.210;27.914;2023-04-23T00:35:36;101275.88;;;9.39;72.33
63204;BME280;49297;43.210;27.914;2023-04-23T00:38:05;101271.31;;;9.41;72.10
63204;BME280;49297;43.210;27.914;2023-04-23T00:40:32;101272.19;;;9.41;71.02
63204;BME280;49297;43.210;27.914;2023-04-23T00:42:58;101279.50;;;9.38;71.57
63204;BME280;49297;43.210;27.914;2023-04-23T00:45:24;101275.88;;;9.39;71.80
63204;BME280;49297;43.210;27.914;2023-04-23T00:47:52;101267.00;;;9.40;70.87
63204;BME280;49297;43.210;27.914;2023-04-23T00:50:18;101265.09;;;9.42;71.49
63204;BME280;49297;43.210;27.914;2023-04-23T00:52:45;101269.66;;;9.40;71.58
63204;BME280;49297;43.210;27.914;2023-04-23T00:55:11;101276.00;;;9.37;71.83
63204;BME280;49297;43.210;27.914;2023-04-23T00:57:37;101263.50;;;9.39;71.48
63204;BME280;49297;43.210;27.914;2023-04-23T01:00:06;101269.66;;;9.40;71.28
63204;BME280;49297;43.210;27.914;2023-04-23T01:02:33;101271.22;;;9.42;71.31
63204;BME280;49297;43.210;27.914;2023-04-23T01:05:05;101282.63;;;9.43;71.32
63204;BME280;49297;43.210;27.914;2023-04-23T01:07:34;101272.06;;;9.43;71.08
63204;BME280;49297;43.210;27.914;2023-04-23T01:10:00;101268.69;;;9.41;71.49
63204;BME280;49297;43.210;27.914;2023-04-23T01:12:34;101272.31;;;9.40;70.51
63204;BME280;49297;43.210;27.914;2023-04-23T01:14:59;101261.97;;;9.37;71.22
63204;BME280;49297;43.210;27.914;2023-04-23T01:17:27;101274.66;;;9.31;71.37
63204;BME280;49297;43.210;27.914;2023-04-23T01:19:53;101274.06;;;9.28;70.89
63204;BME280;49297;43.210;27.914;2023-04-23T01:22:19;101265.03;;;9.19;70.76
63204;BME280;49297;43.210;27.914;2023-04-23T01:24:46;101262.13;;;9.11;71.21
63204;BME280;49297;43.210;27.914;2023-04-23T01:27:12;101266.91;;;9.06;71.79
63204;BME280;49297;43.210;27.914;2023-04-23T01:29:38;101271.81;;;8.99;71.67
63204;BME280;49297;43.210;27.914;2023-04-23T01:32:05;101270.00;;;9.00;71.42
63204;BME280;49297;43.210;27.914;2023-04-23T01:34:32;101265.56;;;9.00;72.02
63204;BME280;49297;43.210;27.914;2023-04-23T01:36:59;101270.47;;;8.93;72.00
63204;BME280;49297;43.210;27.914;2023-04-23T01:39:26;101276.78;;;8.91;72.05
63204;BME280;49297;43.210;27.914;2023-04-23T01:41:53;101277.88;;;8.88;72.73
63204;BME280;49297;43.210;27.914;2023-04-23T01:44:20;101274.41;;;8.88;72.56
63204;BME280;49297;43.210;27.914;2023-04-23T01:46:46;101269.97;;;8.88;72.53
63204;BME280;49297;43.210;27.914;2023-04-23T01:49:13;101273.44;;;8.89;72.10
63204;BME280;49297;43.210;27.914;2023-04-23T01:51:39;101273.22;;;8.92;71.68
63204;BME280;49297;43.210;27.914;2023-04-23T01:54:05;101276.78;;;8.91;72.27
63204;BME280;49297;43.210;27.914;2023-04-23T01:56:31;101272.59;;;8.88;72.16
63204;BME280;49297;43.210;27.914;2023-04-23T01:58:59;101275.97;;;8.90;72.10
63204;BME280;49297;43.210;27.914;2023-04-23T02:01:40;101278.03;;;8.98;71.96
63204;BME280;49297;43.210;27.914;2023-04-23T02:04:07;101277.09;;;8.99;71.35
63204;BME280;49297;43.210;27.914;2023-04-23T02:06:35;101276.47;;;8.95;71.59
63204;BME280;49297;43.210;27.914;2023-04-23T02:09:00;101286.06;;;8.96;71.00
63204;BME280;49297;43.210;27.914;2023-04-23T02:11:28;101280.78;;;8.96;71.19
63204;BME280;49297;43.210;27.914;2023-04-23T02:13:54;101286.94;;;8.97;71.25
63204;BME280;49297;43.210;27.914;2023-04-23T02:16:20;101284.41;;;8.95;71.06
63204;BME280;49297;43.210;27.914;2023-04-23T02:18:50;101285.84;;;9.00;70.96
63204;BME280;49297;43.210;27.914;2023-04-23T02:21:23;101291.00;;;9.01;70.91
63204;BME280;49297;43.210;27.914;2023-04-23T02:23:49;101293.44;;;9.04;70.72
63204;BME280;49297;43.210;27.914;2023-04-23T02:26:16;101283.09;;;9.01;70.90
63204;BME280;49297;43.210;27.914;2023-04-23T02:28:44;101285.22;;;8.96;70.84
63204;BME280;49297;43.210;27.914;2023-04-23T02:31:10;101285.81;;;8.88;70.54
63204;BME280;49297;43.210;27.914;2023-04-23T02:33:36;101293.53;;;8.79;71.57
63204;BME280;49297;43.210;27.914;2023-04-23T02:36:02;101290.06;;;8.78;71.30
63204;BME280;49297;43.210;27.914;2023-04-23T02:38:28;101294.84;;;8.73;71.76
63204;BME280;49297;43.210;27.914;2023-04-23T02:40:54;101297.09;;;8.66;72.05
63204;BME280;49297;43.210;27.914;2023-04-23T02:43:22;101295.50;;;8.64;71.64
63204;BME280;49297;43.210;27.914;2023-04-23T02:45:48;101286.13;;;8.60;71.48
63204;BME280;49297;43.210;27.914;2023-04-23T02:48:15;101296.69;;;8.60;72.08
63204;BME280;49297;43.210;27.914;2023-04-23T02:50:42;101292.69;;;8.54;71.90
63204;BME280;49297;43.210;27.914;2023-04-23T02:53:08;101296.72;;;8.47;71.63
63204;BME280;49297;43.210;27.914;2023-04-23T02:55:33;101285.63;;;8.42;72.60
63204;BME280;49297;43.210;27.914;2023-04-23T02:58:00;101293.47;;;8.43;72.78
63204;BME280;49297;43.210;27.914;2023-04-23T03:00:28;101284.69;;;8.43;72.37
63204;BME280;49297;43.210;27.914;2023-04-23T03:02:54;101291.00;;;8.40;72.25
63204;BME280;49297;43.210;27.914;2023-04-23T03:05:20;101286.16;;;8.34;72.51
63204;BME280;49297;43.210;27.914;2023-04-23T03:07:45;101286.91;;;8.36;72.74
63204;BME280;49297;43.210;27.914;2023-04-23T03:10:11;101286.03;;;8.35;73.14
63204;BME280;49297;43.210;27.914;2023-04-23T03:12:37;101293.75;;;8.38;72.87
63204;BME280;49297;43.210;27.914;2023-04-23T03:15:10;101292.69;;;8.41;73.37
63204;BME280;49297;43.210;27.914;2023-04-23T03:17:36;101285.41;;;8.45;72.53
63204;BME280;49297;43.210;27.914;2023-04-23T03:20:03;101287.53;;;8.52;72.34
63204;BME280;49297;43.210;27.914;2023-04-23T03:22:29;101292.56;;;8.55;72.33
63204;BME280;49297;43.210;27.914;2023-04-23T03:24:55;101291.31;;;8.61;71.90
63204;BME280;49297;43.210;27.914;2023-04-23T03:27:23;101292.66;;;8.67;71.64
63204;BME280;49297;43.210;27.914;2023-04-23T03:29:50;101297.09;;;8.66;71.51
63204;BME280;49297;43.210;27.914;2023-04-23T03:32:16;101295.91;;;8.70;71.83
63204;BME280;49297;43.210;27.914;2023-04-23T03:34:41;101300.34;;;8.70;71.17
63204;BME280;49297;43.210;27.914;2023-04-23T03:37:07;101300.34;;;8.70;71.49
63204;BME280;49297;43.210;27.914;2023-04-23T03:39:33;101294.09;;;8.71;71.84
63204;BME280;49297;43.210;27.914;2023-04-23T03:41:59;101295.06;;;8.70;71.78
63204;BME280;49297;43.210;27.914;2023-04-23T03:44:26;101301.81;;;8.74;71.63
63204;BME280;49297;43.210;27.914;2023-04-23T03:46:52;101304.44;;;8.74;71.55
63204;BME280;49297;43.210;27.914;2023-04-23T03:49:18;101309.63;;;8.75;71.09
63204;BME280;49297;43.210;27.914;2023-04-23T03:51:46;101310.34;;;8.77;71.55
63204;BME280;49297;43.210;27.914;2023-04-23T03:54:12;101304.34;;;8.75;71.13
63204;BME280;49297;43.210;27.914;2023-04-23T03:56:38;101310.25;;;8.79;71.53
63204;BME280;49297;43.210;27.914;2023-04-23T03:59:06;101314.34;;;8.83;71.92
63204;BME280;49297;43.210;27.914;2023-04-23T04:01:32;101316.88;;;8.85;71.55
63204;BME280;49297;43.210;27.914;2023-04-23T04:04:00;101327.22;;;8.88;71.40
63204;BME280;49297;43.210;27.914;2023-04-23T04:06:27;101325.19;;;8.91;71.83
63204;BME280;49297;43.210;27.914;2023-04-23T04:08:52;101326.66;;;8.95;71.60
63204;BME280;49297;43.210;27.914;2023-04-23T04:11:18;101330.13;;;8.96;71.81
63204;BME280;49297;43.210;27.914;2023-04-23T04:13:45;101335.28;;;8.98;71.81
63204;BME280;49297;43.210;27.914;2023-04-23T04:16:12;101338.16;;;8.94;71.49
63204;BME280;49297;43.210;27.914;2023-04-23T04:18:39;101336.13;;;8.98;71.45
63204;BME280;49297;43.210;27.914;2023-04-23T04:21:05;101345.13;;;8.95;71.23
63204;BME280;49297;43.210;27.914;2023-04-23T04:23:31;101344.41;;;8.93;71.83
63204;BME280;49297;43.210;27.914;2023-04-23T04:25:58;101341.53;;;8.96;71.28
63204;BME280;49297;43.210;27.914;2023-04-23T04:28:24;101337.63;;;9.02;71.86
63204;BME280;49297;43.210;27.914;2023-04-23T04:30:54;101335.69;;;9.04;71.33
63204;BME280;49297;43.210;27.914;2023-04-23T04:33:22;101347.00;;;9.06;71.25
63204;BME280;49297;43.210;27.914;2023-04-23T04:35:50;101347.00;;;9.06;71.16
63204;BME280;49297;43.210;27.914;2023-04-23T04:38:15;101343.16;;;9.10;71.24
63204;BME280;49297;43.210;27.914;2023-04-23T04:40:42;101345.47;;;9.15;71.10
63204;BME280;49297;43.210;27.914;2023-04-23T04:43:08;101347.91;;;9.18;71.09
63204;BME280;49297;43.210;27.914;2023-04-23T04:45:36;101344.78;;;9.24;70.93
63204;BME280;49297;43.210;27.914;2023-04-23T04:48:02;101348.25;;;9.25;70.56
63204;BME280;49297;43.210;27.914;2023-04-23T04:50:28;101349.63;;;9.30;70.37
63204;BME280;49297;43.210;27.914;2023-04-23T04:52:53;101351.81;;;9.37;70.18
63204;BME280;49297;43.210;27.914;2023-04-23T04:55:19;101344.88;;;9.47;70.27
63204;BME280;49297;43.210;27.914;2023-04-23T04:57:45;101359.22;;;9.56;70.17
63204;BME280;49297;43.210;27.914;2023-04-23T05:00:25;101362.84;;;9.66;69.39
63204;BME280;49297;43.210;27.914;2023-04-23T05:02:56;101363.09;;;9.74;69.07
63204;BME280;49297;43.210;27.914;2023-04-23T05:05:23;101360.25;;;9.88;68.75
63204;BME280;49297;43.210;27.914;2023-04-23T05:07:50;101351.72;;;9.96;68.70
63204;BME280;49297;43.210;27.914;2023-04-23T05:10:16;101355.34;;;9.95;68.06
63204;BME280;49297;43.210;27.914;2023-04-23T05:12:42;101361.34;;;9.97;69.02
63204;BME280;49297;43.210;27.914;2023-04-23T05:15:10;101363.78;;;10.12;69.10
63204;BME280;49297;43.210;27.914;2023-04-23T05:17:41;101359.94;;;10.27;68.09
63204;BME280;49297;43.210;27.914;2023-04-23T05:20:08;101356.13;;;10.31;68.03
63204;BME280;49297;43.210;27.914;2023-04-23T05:22:40;101363.94;;;10.33;67.69
63204;BME280;49297;43.210;27.914;2023-04-23T05:25:07;101364.66;;;10.35;67.40
63204;BME280;49297;43.210;27.914;2023-04-23T05:27:34;101362.13;;;10.33;67.75
63204;BME280;49297;43.210;27.914;2023-04-23T05:30:06;101357.81;;;10.32;67.87
63204;BME280;49297;43.210;27.914;2023-04-23T05:32:32;101368.63;;;10.40;68.36
63204;BME280;49297;43.210;27.914;2023-04-23T05:34:59;101360.06;;;10.48;68.24
63204;BME280;49297;43.210;27.914;2023-04-23T05:37:25;101363.56;;;10.60;67.40
63204;BME280;49297;43.210;27.914;2023-04-23T05:39:51;101359.56;;;10.65;67.65
63204;BME280;49297;43.210;27.914;2023-04-23T05:42:19;101359.59;;;10.77;67.56
63204;BME280;49297;43.210;27.914;2023-04-23T05:44:45;101364.84;;;10.88;67.19
63204;BME280;49297;43.210;27.914;2023-04-23T05:47:12;101363.75;;;10.91;67.05
63204;BME280;49297;43.210;27.914;2023-04-23T05:49:40;101361.22;;;11.00;66.81
63204;BME280;49297;43.210;27.914;2023-04-23T05:52:06;101364.31;;;11.05;66.81
63204;BME280;49297;43.210;27.914;2023-04-23T05:54:32;101363.69;;;11.13;66.50
63204;BME280;49297;43.210;27.914;2023-04-23T05:57:00;101365.00;;;11.19;66.85
63204;BME280;49297;43.210;27.914;2023-04-23T05:59:30;101368.00;;;11.26;66.97
63204;BME280;49297;43.210;27.914;2023-04-23T06:01:56;101364.34;;;11.38;66.30
63204;BME280;49297;43.210;27.914;2023-04-23T06:04:23;101360.41;;;11.53;65.87
63204;BME280;49297;43.210;27.914;2023-04-23T06:06:49;101360.34;;;11.65;64.95
63204;BME280;49297;43.210;27.914;2023-04-23T06:09:16;101360.16;;;11.77;64.92
63204;BME280;49297;43.210;27.914;2023-04-23T06:11:42;101360.56;;;11.94;63.87
63204;BME280;49297;43.210;27.914;2023-04-23T06:14:10;101360.22;;;12.08;63.29
63204;BME280;49297;43.210;27.914;2023-04-23T06:16:36;101365.59;;;12.18;63.35
63204;BME280;49297;43.210;27.914;2023-04-23T06:19:03;101360.88;;;12.31;62.77
63204;BME280;49297;43.210;27.914;2023-04-23T06:21:29;101353.81;;;12.42;62.74
63204;BME280;49297;43.210;27.914;2023-04-23T06:23:55;101364.75;;;12.58;62.72
63204;BME280;49297;43.210;27.914;2023-04-23T06:26:22;101357.84;;;12.76;62.13
63204;BME280;49297;43.210;27.914;2023-04-23T06:28:50;101358.84;;;12.95;61.88
63204;BME280;49297;43.210;27.914;2023-04-23T06:31:19;101366.41;;;13.09;61.70
63204;BME280;49297;43.210;27.914;2023-04-23T06:33:47;101368.25;;;13.19;61.25
63204;BME280;49297;43.210;27.914;2023-04-23T06:36:15;101365.88;;;13.25;60.49
63204;BME280;49297;43.210;27.914;2023-04-23T06:38:43;101366.75;;;13.36;60.17
63204;BME280;49297;43.210;27.914;2023-04-23T06:41:10;101373.72;;;13.37;59.67
63204;BME280;49297;43.210;27.914;2023-04-23T06:43:37;101368.56;;;13.45;60.23
63204;BME280;49297;43.210;27.914;2023-04-23T06:46:03;101363.94;;;13.57;59.90
63204;BME280;49297;43.210;27.914;2023-04-23T06:48:32;101373.72;;;13.66;59.43
63204;BME280;49297;43.210;27.914;2023-04-23T06:50:58;101370.91;;;13.77;59.31
63204;BME280;49297;43.210;27.914;2023-04-23T06:53:24;101369.91;;;13.88;59.33
63204;BME280;49297;43.210;27.914;2023-04-23T06:55:50;101369.59;;;14.01;59.31
63204;BME280;49297;43.210;27.914;2023-04-23T06:58:16;101371.25;;;14.12;58.57
63204;BME280;49297;43.210;27.914;2023-04-23T07:00:44;101378.22;;;14.22;58.34
63204;BME280;49297;43.210;27.914;2023-04-23T07:03:11;101370.91;;;14.34;57.83
63204;BME280;49297;43.210;27.914;2023-04-23T07:05:37;101376.03;;;14.45;57.55
63204;BME280;49297;43.210;27.914;2023-04-23T07:08:05;101374.31;;;14.54;56.60
63204;BME280;49297;43.210;27.914;2023-04-23T07:10:38;101369.13;;;14.62;56.63
63204;BME280;49297;43.210;27.914;2023-04-23T07:13:04;101381.94;;;14.77;56.11
63204;BME280;49297;43.210;27.914;2023-04-23T07:15:33;101384.09;;;14.91;55.43
63204;BME280;49297;43.210;27.914;2023-04-23T07:17:59;101375.06;;;15.02;54.05
63204;BME280;49297;43.210;27.914;2023-04-23T07:20:24;101370.50;;;15.12;53.38
63204;BME280;49297;43.210;27.914;2023-04-23T07:22:51;101375.44;;;15.25;53.69
63204;BME280;49297;43.210;27.914;2023-04-23T07:25:25;101378.25;;;15.41;52.94
63204;BME280;49297;43.210;27.914;2023-04-23T07:27:51;101375.22;;;15.54;51.99
63204;BME280;49297;43.210;27.914;2023-04-23T07:30:19;101379.78;;;15.62;51.64
63204;BME280;49297;43.210;27.914;2023-04-23T07:32:45;101372.16;;;15.67;51.11
63204;BME280;49297;43.210;27.914;2023-04-23T07:35:11;101373.63;;;15.79;50.96
63204;BME280;49297;43.210;27.914;2023-04-23T07:37:37;101371.50;;;15.91;50.40
63204;BME280;49297;43.210;27.914;2023-04-23T07:40:04;101373.94;;;16.03;50.47
63204;BME280;49297;43.210;27.914;2023-04-23T07:42:30;101372.69;;;16.15;49.05
63204;BME280;49297;43.210;27.914;2023-04-23T07:44:57;101374.56;;;16.23;48.55
63204;BME280;49297;43.210;27.914;2023-04-23T07:47:23;101378.94;;;16.32;48.12
63204;BME280;49297;43.210;27.914;2023-04-23T07:49:50;101370.13;;;16.40;46.60
63204;BME280;49297;43.210;27.914;2023-04-23T07:52:18;101366.16;;;16.44;46.73
63204;BME280;49297;43.210;27.914;2023-04-23T07:54:44;101371.34;;;16.53;46.66
63204;BME280;49297;43.210;27.914;2023-04-23T07:57:11;101374.22;;;16.60;46.21
63204;BME280;49297;43.210;27.914;2023-04-23T07:59:45;101377.09;;;16.67;46.34
63204;BME280;49297;43.210;27.914;2023-04-23T08:02:13;101367.06;;;16.69;47.33
63204;BME280;49297;43.210;27.914;2023-04-23T08:04:41;101373.59;;;16.74;48.11
63204;BME280;49297;43.210;27.914;2023-04-23T08:07:08;101378.63;;;16.78;48.34
63204;BME280;49297;43.210;27.914;2023-04-23T08:09:35;101369.25;;;16.73;47.99
63204;BME280;49297;43.210;27.914;2023-04-23T08:12:01;101366.41;;;16.75;48.50
63204;BME280;49297;43.210;27.914;2023-04-23T08:14:27;101359.41;;;16.74;48.17
63204;BME280;49297;43.210;27.914;2023-04-23T08:16:53;101369.75;;;16.77;47.11
63204;BME280;49297;43.210;27.914;2023-04-23T08:19:19;101372.13;;;16.80;46.66
63204;BME280;49297;43.210;27.914;2023-04-23T08:21:45;101367.09;;;16.77;46.37
63204;BME280;49297;43.210;27.914;2023-04-23T08:24:11;101366.09;;;16.78;46.26
63204;BME280;49297;43.210;27.914;2023-04-23T08:26:37;101370.47;;;16.79;46.49
63204;BME280;49297;43.210;27.914;2023-04-23T08:29:05;101367.16;;;16.85;46.27
63204;BME280;49297;43.210;27.914;2023-04-23T08:31:31;101361.63;;;16.87;45.87
63204;BME280;49297;43.210;27.914;2023-04-23T08:33:57;101360.97;;;16.85;46.36
63204;BME280;49297;43.210;27.914;2023-04-23T08:36:23;101358.13;;;16.94;46.60
63204;BME280;49297;43.210;27.914;2023-04-23T08:38:50;101360.19;;;17.01;46.83
63204;BME280;49297;43.210;27.914;2023-04-23T08:41:17;101351.16;;;17.10;46.14
63204;BME280;49297;43.210;27.914;2023-04-23T08:43:50;101362.03;;;17.17;45.87
63204;BME280;49297;43.210;27.914;2023-04-23T08:46:17;101351.50;;;17.15;46.89
63204;BME280;49297;43.210;27.914;2023-04-23T08:48:44;101347.16;;;17.22;46.97
63204;BME280;49297;43.210;27.914;2023-04-23T08:51:17;101353.19;;;17.24;46.48
63204;BME280;49297;43.210;27.914;2023-04-23T08:53:49;101351.34;;;17.25;47.23
63204;BME280;49297;43.210;27.914;2023-04-23T08:56:18;101351.16;;;17.26;47.26
63204;BME280;49297;43.210;27.914;2023-04-23T08:58:46;101347.81;;;17.24;46.83
63204;BME280;49297;43.210;27.914;2023-04-23T09:01:12;101350.16;;;17.36;47.07
63204;BME280;49297;43.210;27.914;2023-04-23T09:03:41;101350.03;;;17.45;46.26
63204;BME280;49297;43.210;27.914;2023-04-23T09:06:08;101354.03;;;17.58;47.18
63204;BME280;49297;43.210;27.914;2023-04-23T09:08:34;101350.16;;;17.68;45.41
63204;BME280;49297;43.210;27.914;2023-04-23T09:11:01;101347.97;;;17.80;44.46
63204;BME280;49297;43.210;27.914;2023-04-23T09:13:29;101357.00;;;18.04;43.75
63204;BME280;49297;43.210;27.914;2023-04-23T09:15:56;101359.28;;;18.23;43.09
63204;BME280;49297;43.210;27.914;2023-04-23T09:18:22;101351.53;;;18.37;43.27
63204;BME280;49297;43.210;27.914;2023-04-23T09:20:48;101356.31;;;18.58;42.98
63204;BME280;49297;43.210;27.914;2023-04-23T09:23:15;101345.31;;;18.76;42.16
63204;BME280;49297;43.210;27.914;2023-04-23T09:25:43;101348.09;;;18.91;42.19
63204;BME280;49297;43.210;27.914;2023-04-23T09:28:12;101348.41;;;18.96;40.80
63204;BME280;49297;43.210;27.914;2023-04-23T09:30:44;101352.47;;;18.92;41.24
63204;BME280;49297;43.210;27.914;2023-04-23T09:33:12;101355.69;;;18.87;41.33
63204;BME280;49297;43.210;27.914;2023-04-23T09:35:39;101358.38;;;18.79;41.22
63204;BME280;49297;43.210;27.914;2023-04-23T09:38:11;101354.19;;;18.85;41.20
63204;BME280;49297;43.210;27.914;2023-04-23T09:40:49;101354.84;;;18.87;41.93
63204;BME280;49297;43.210;27.914;2023-04-23T09:43:16;101358.91;;;18.82;41.42
63204;BME280;49297;43.210;27.914;2023-04-23T09:45:48;101356.56;;;18.71;40.95
63204;BME280;49297;43.210;27.914;2023-04-23T09:48:17;101347.25;;;18.59;40.83
63204;BME280;49297;43.210;27.914;2023-04-23T09:50:43;101361.03;;;18.56;41.55
63204;BME280;49297;43.210;27.914;2023-04-23T09:53:20;101348.78;;;18.53;41.24
63204;BME280;49297;43.210;27.914;2023-04-23T09:55:47;101345.28;;;18.53;41.32
63204;BME280;49297;43.210;27.914;2023-04-23T09:58:14;101342.56;;;18.61;41.00
63204;BME280;49297;43.210;27.914;2023-04-23T10:00:40;101336.25;;;18.77;40.77
63204;BME280;49297;43.210;27.914;2023-04-23T10:03:07;101334.00;;;18.97;41.20
63204;BME280;49297;43.210;27.914;2023-04-23T10:05:40;101343.53;;;19.23;41.54
63204;BME280;49297;43.210;27.914;2023-04-23T10:08:06;101333.50;;;19.39;40.88
63204;BME280;49297;43.210;27.914;2023-04-23T10:10:33;101332.31;;;19.42;39.93
63204;BME280;49297;43.210;27.914;2023-04-23T10:13:01;101338.03;;;19.39;39.85
63204;BME280;49297;43.210;27.914;2023-04-23T10:15:27;101340.66;;;19.47;39.92
63204;BME280;49297;43.210;27.914;2023-04-23T10:17:54;101333.50;;;19.39;39.45
63204;BME280;49297;43.210;27.914;2023-04-23T10:20:22;101337.00;;;19.25;39.99
63204;BME280;49297;43.210;27.914;2023-04-23T10:22:48;101326.34;;;19.09;40.03
63204;BME280;49297;43.210;27.914;2023-04-23T10:25:18;101327.03;;;18.79;40.21
63204;BME280;49297;43.210;27.914;2023-04-23T10:27:48;101335.00;;;18.64;40.90
63204;BME280;49297;43.210;27.914;2023-04-23T10:30:14;101332.03;;;18.51;41.32
63204;BME280;49297;43.210;27.914;2023-04-23T10:32:41;101329.09;;;18.38;41.61
63204;BME280;49297;43.210;27.914;2023-04-23T10:35:09;101325.78;;;18.27;42.22
63204;BME280;49297;43.210;27.914;2023-04-23T10:37:36;101321.25;;;18.20;42.76
63204;BME280;49297;43.210;27.914;2023-04-23T10:40:07;101316.13;;;18.02;43.29
63204;BME280;49297;43.210;27.914;2023-04-23T10:42:38;101320.19;;;17.98;44.27
63204;BME280;49297;43.210;27.914;2023-04-23T10:45:22;101320.00;;;17.91;44.42
63204;BME280;49297;43.210;27.914;2023-04-23T10:47:49;101307.16;;;17.70;44.52
63204;BME280;49297;43.210;27.914;2023-04-23T10:50:21;101310.19;;;17.59;45.09
63204;BME280;49297;43.210;27.914;2023-04-23T10:52:49;101307.00;;;17.55;45.02
63204;BME280;49297;43.210;27.914;2023-04-23T10:55:21;101322.75;;;17.66;44.45
63204;BME280;49297;43.210;27.914;2023-04-23T10:58:04;101310.34;;;17.74;44.37
63204;BME280;49297;43.210;27.914;2023-04-23T11:00:44;101318.38;;;17.90;44.24
63204;BME280;49297;43.210;27.914;2023-04-23T11:03:38;101310.81;;;18.41;44.09
63204;BME280;49297;43.210;27.914;2023-04-23T11:06:05;101305.97;;;18.99;42.66
63204;BME280;49297;43.210;27.914;2023-04-23T11:08:50;101310.38;;;19.53;42.47
63204;BME280;49297;43.210;27.914;2023-04-23T11:11:17;101302.03;;;20.16;40.16
63204;BME280;49297;43.210;27.914;2023-04-23T11:13:55;101305.53;;;20.83;38.55
63204;BME280;49297;43.210;27.914;2023-04-23T11:16:22;101307.75;;;21.44;38.01
63204;BME280;49297;43.210;27.914;2023-04-23T11:19:08;101301.34;;;22.08;37.06
63204;BME280;49297;43.210;27.914;2023-04-23T11:24:29;101300.06;;;23.41;34.02
63204;BME280;49297;43.210;27.914;2023-04-23T11:26:57;101300.22;;;23.72;32.90
63204;BME280;49297;43.210;27.914;2023-04-23T11:29:26;101301.88;;;24.00;32.10
63204;BME280;49297;43.210;27.914;2023-04-23T11:31:52;101307.88;;;24.02;32.09
63204;BME280;49297;43.210;27.914;2023-04-23T11:34:19;101299.88;;;24.34;32.19
63204;BME280;49297;43.210;27.914;2023-04-23T11:36:49;101310.88;;;24.84;31.35
63204;BME280;49297;43.210;27.914;2023-04-23T11:39:15;101307.13;;;25.17;30.56
63204;BME280;49297;43.210;27.914;2023-04-23T11:41:44;101309.16;;;25.47;30.00
63204;BME280;49297;43.210;27.914;2023-04-23T11:44:12;101319.25;;;25.83;29.82
63204;BME280;49297;43.210;27.914;2023-04-23T11:46:39;101312.13;;;26.26;29.45
63204;BME280;49297;43.210;27.914;2023-04-23T11:49:04;101313.53;;;26.47;28.57
63204;BME280;49297;43.210;27.914;2023-04-23T11:51:41;101310.19;;;26.45;28.96
63204;BME280;49297;43.210;27.914;2023-04-23T11:54:08;101303.97;;;26.63;28.48
63204;BME280;49297;43.210;27.914;2023-04-23T11:56:37;101298.00;;;26.85;28.21
63204;BME280;49297;43.210;27.914;2023-04-23T11:59:04;101307.19;;;26.84;27.52
63204;BME280;49297;43.210;27.914;2023-04-23T12:01:47;101298.66;;;26.50;27.27
63204;BME280;49297;43.210;27.914;2023-04-23T12:04:18;101295.25;;;26.24;27.92
63204;BME280;49297;43.210;27.914;2023-04-23T12:06:48;101300.06;;;26.22;28.81
63204;BME280;49297;43.210;27.914;2023-04-23T12:09:15;101293.31;;;26.43;29.28
63204;BME280;49297;43.210;27.914;2023-04-23T12:11:42;101297.50;;;26.76;29.67
63204;BME280;49297;43.210;27.914;2023-04-23T12:14:11;101283.94;;;26.76;31.19
63204;BME280;49297;43.210;27.914;2023-04-23T12:16:43;101284.16;;;26.86;30.88
63204;BME280;49297;43.210;27.914;2023-04-23T12:19:35;101283.94;;;26.88;29.43
63204;BME280;49297;43.210;27.914;2023-04-23T12:22:02;101284.00;;;26.39;30.93
63204;BME280;49297;43.210;27.914;2023-04-23T12:24:47;101283.22;;;25.58;32.26
63204;BME280;49297;43.210;27.914;2023-04-23T12:27:18;101282.94;;;24.59;34.38
63204;BME280;49297;43.210;27.914;2023-04-23T12:29:46;101274.47;;;23.63;37.12
63204;BME280;49297;43.210;27.914;2023-04-23T12:32:16;101271.13;;;22.81;39.06
63204;BME280;49297;43.210;27.914;2023-04-23T12:34:54;101277.47;;;21.98;40.76
63204;BME280;49297;43.210;27.914;2023-04-23T12:37:24;101268.53;;;21.35;42.32
63204;BME280;49297;43.210;27.914;2023-04-23T12:39:52;101271.00;;;20.86;42.79
63204;BME280;49297;43.210;27.914;2023-04-23T12:42:20;101269.53;;;20.47;44.62
63204;BME280;49297;43.210;27.914;2023-04-23T12:44:46;101262.38;;;20.03;45.13
63204;BME280;49297;43.210;27.914;2023-04-23T12:47:12;101260.44;;;19.82;45.59
63204;BME280;49297;43.210;27.914;2023-04-23T12:49:42;101258.34;;;19.69;45.59